Time,TemperatureF,DewpointF,PressureIn,WindDirection,WindDirectionDegrees,WindSpeedMPH,WindSpeedGustMPH,Humidity,HourlyPrecipIn,Conditions,Clouds,dailyrainin,SoftwareType,DateUTC
2013-07-06 00:02:00,84.0,62.0,29.86,ESE,122,6.0,9.0,47,0.00,,,0.00,,2013-07-06 05:02:00,
2013-07-06 00:12:00,84.0,62.0,29.87,ESE,123,6.0,9.0,48,0.00,,,0.00,,2013-07-06 05:12:00,
2013-07-06 00:22:00,83.0,62.0,29.87,SE,128,5.0,10.0,49,0.00,,,0.00,,2013-07-06 05:22:00,
2013-07-06 00:33:00,83.0,62.0,29.87,SE,132,6.0,12.0,50,0.00,,,0.00,,2013-07-06 05:33:00,
2013-07-06 00:42:00,83.0,63.0,29.87,SE,136,6.0,12.0,51,0.00,,,0.00,,2013-07-06 05:42:00,
2013-07-06 00:53:00,83.0,64.0,29.87,SE,142,7.0,12.0,52,0.00,,,0.00,,2013-07-06 05:53:00,
2013-07-06 01:01:00,82.0,63.0,29.87,SE,137,11.0,15.0,53,0.00,,,0.00,,2013-07-06 06:01:00,
2013-07-06 01:12:00,82.0,63.0,29.87,SE,138,7.0,13.0,53,0.00,,,0.00,,2013-07-06 06:12:00,
2013-07-06 01:22:00,82.0,64.0,29.87,SE,132,9.0,15.0,54,0.00,,,0.00,,2013-07-06 06:22:00,
2013-07-06 01:34:00,82.0,64.0,29.87,SE,135,9.0,12.0,54,0.00,,,0.00,,2013-07-06 06:34:00,
2013-07-06 01:43:00,81.0,63.0,29.87,SE,132,8.0,12.0,54,0.00,,,0.00,,2013-07-06 06:43:00,
2013-07-06 01:53:00,81.0,63.0,29.87,SE,140,7.0,13.0,55,0.00,,,0.00,,2013-07-06 06:53:00,
2013-07-06 02:02:00,81.0,64.0,29.87,SE,138,6.0,9.0,56,0.00,,,0.00,,2013-07-06 07:02:00,
2013-07-06 02:12:00,80.0,63.0,29.88,SE,138,6.0,12.0,56,0.00,,,0.00,,2013-07-06 07:12:00,
2013-07-06 02:22:00,80.0,63.0,29.88,SE,135,5.0,9.0,57,0.00,,,0.00,,2013-07-06 07:22:00,
2013-07-06 02:33:00,80.0,63.0,29.88,SE,134,5.0,9.0,57,0.00,,,0.00,,2013-07-06 07:33:00,
2013-07-06 02:43:00,80.0,64.0,29.88,SE,137,6.0,12.0,58,0.00,,,0.00,,2013-07-06 07:43:00,
2013-07-06 02:52:00,79.0,63.0,29.87,SE,133,6.0,9.0,59,0.00,,,0.00,,2013-07-06 07:52:00,
2013-07-06 03:02:00,79.0,63.0,29.87,SE,135,4.0,7.0,59,0.00,,,0.00,,2013-07-06 08:02:00,
2013-07-06 03:11:00,78.0,63.0,29.87,SE,135,3.0,8.0,60,0.00,,,0.00,,2013-07-06 08:11:00,
2013-07-06 03:21:00,78.0,63.0,29.87,SE,135,5.0,8.0,61,0.00,,,0.00,,2013-07-06 08:21:00,
2013-07-06 03:33:00,78.0,63.0,29.87,SE,136,3.0,7.0,61,0.00,,,0.00,,2013-07-06 08:33:00,
2013-07-06 03:43:00,78.0,64.0,29.87,SE,136,3.0,7.0,62,0.00,,,0.00,,2013-07-06 08:43:00,
2013-07-06 03:54:00,77.0,63.0,29.86,SE,137,4.0,7.0,62,0.00,,,0.00,,2013-07-06 08:54:00,
2013-07-06 04:02:00,77.0,63.0,29.87,SE,136,3.0,7.0,62,0.00,,,0.00,,2013-07-06 09:02:00,
2013-07-06 04:11:00,77.0,63.0,29.87,SE,136,3.0,6.0,62,0.00,,,0.00,,2013-07-06 09:11:00,
2013-07-06 04:22:00,77.0,63.0,29.86,SE,140,5.0,9.0,62,0.00,,,0.00,,2013-07-06 09:22:00,
2013-07-06 04:33:00,77.0,63.0,29.86,SE,143,6.0,10.0,62,0.00,,,0.00,,2013-07-06 09:33:00,
2013-07-06 04:43:00,77.0,63.0,29.86,SE,144,3.0,10.0,62,0.00,,,0.00,,2013-07-06 09:43:00,
2013-07-06 04:52:00,77.0,63.0,29.86,SE,140,6.0,10.0,63,0.00,,,0.00,,2013-07-06 09:52:00,
2013-07-06 05:02:00,77.0,63.0,29.86,SE,139,2.0,7.0,63,0.00,,,0.00,,2013-07-06 10:02:00,
2013-07-06 05:11:00,76.0,63.0,29.86,SE,140,5.0,7.0,64,0.00,,,0.00,,2013-07-06 10:11:00,
2013-07-06 05:22:00,76.0,63.0,29.86,SE,140,3.0,8.0,65,0.00,,,0.00,,2013-07-06 10:22:00,
2013-07-06 05:33:00,76.0,63.0,29.86,SE,142,5.0,8.0,65,0.00,,,0.00,,2013-07-06 10:33:00,
2013-07-06 05:42:00,76.0,63.0,29.86,SE,141,4.0,9.0,65,0.00,,,0.00,,2013-07-06 10:42:00,
2013-07-06 05:53:00,76.0,64.0,29.87,SE,140,4.0,8.0,66,0.00,,,0.00,,2013-07-06 10:53:00,
2013-07-06 06:01:00,75.0,63.0,29.86,SE,141,4.0,8.0,66,0.00,,,0.00,,2013-07-06 11:01:00,
2013-07-06 06:11:00,75.0,63.0,29.87,SE,142,5.0,9.0,67,0.00,,,0.00,,2013-07-06 11:11:00,
2013-07-06 06:22:00,75.0,63.0,29.86,SE,142,4.0,8.0,67,0.00,,,0.00,,2013-07-06 11:22:00,
2013-07-06 06:33:00,75.0,64.0,29.87,SE,142,3.0,6.0,68,0.00,,,0.00,,2013-07-06 11:33:00,
2013-07-06 06:42:00,75.0,64.0,29.87,SE,142,2.0,7.0,68,0.00,,,0.00,,2013-07-06 11:42:00,
2013-07-06 06:53:00,74.0,63.0,29.87,SE,142,3.0,6.0,69,0.00,,,0.00,,2013-07-06 11:53:00,
2013-07-06 07:01:00,74.0,63.0,29.88,SE,142,4.0,7.0,69,0.00,,,0.00,,2013-07-06 12:01:00,
2013-07-06 07:11:00,74.0,64.0,29.88,SE,142,3.0,6.0,70,0.00,,,0.00,,2013-07-06 12:11:00,
2013-07-06 07:22:00,74.0,64.0,29.88,SE,142,3.0,6.0,70,0.00,,,0.00,,2013-07-06 12:22:00,
2013-07-06 07:33:00,75.0,65.0,29.88,SE,144,2.0,8.0,70,0.00,,,0.00,,2013-07-06 12:33:00,
2013-07-06 07:43:00,75.0,65.0,29.88,SSE,148,4.0,10.0,70,0.00,,,0.00,,2013-07-06 12:43:00,
2013-07-06 07:52:00,75.0,65.0,29.88,SSE,148,4.0,8.0,70,0.00,,,0.00,,2013-07-06 12:52:00,
2013-07-06 08:01:00,76.0,65.0,29.88,SSE,149,2.0,9.0,69,0.00,,,0.00,,2013-07-06 13:01:00,
2013-07-06 08:12:00,76.0,65.0,29.88,SSE,148,5.0,9.0,69,0.00,,,0.00,,2013-07-06 13:12:00,
2013-07-06 08:22:00,77.0,66.0,29.88,SE,145,3.0,9.0,69,0.00,,,0.00,,2013-07-06 13:22:00,
2013-07-06 08:33:00,77.0,66.0,29.88,SSE,147,2.0,7.0,69,0.00,,,0.00,,2013-07-06 13:33:00,
2013-07-06 08:43:00,78.0,67.0,29.88,SSE,149,3.0,6.0,68,0.00,,,0.00,,2013-07-06 13:43:00,
2013-07-06 08:52:00,79.0,68.0,29.88,SSE,150,3.0,7.0,68,0.00,,,0.00,,2013-07-06 13:52:00,
2013-07-06 09:02:00,79.0,67.0,29.88,SSE,153,3.0,7.0,67,0.00,,,0.00,,2013-07-06 14:02:00,
2013-07-06 09:11:00,80.0,68.0,29.88,SSE,152,5.0,8.0,66,0.00,,,0.00,,2013-07-06 14:11:00,
2013-07-06 09:22:00,81.0,68.0,29.89,SSE,153,5.0,9.0,65,0.00,,,0.00,,2013-07-06 14:22:00,
2013-07-06 09:34:00,82.0,68.0,29.88,SSE,164,6.0,10.0,63,0.00,,,0.00,,2013-07-06 14:34:00,
2013-07-06 09:42:00,82.0,68.0,29.88,SSE,163,5.0,12.0,63,0.00,,,0.00,,2013-07-06 14:42:00,
2013-07-06 09:53:00,83.0,68.0,29.88,South,175,9.0,18.0,61,0.00,,,0.00,,2013-07-06 14:53:00,
2013-07-06 10:02:00,84.0,69.0,29.88,South,182,6.0,12.0,61,0.00,,,0.00,,2013-07-06 15:02:00,
2013-07-06 10:12:00,84.0,68.0,29.88,SSE,153,6.0,12.0,59,0.00,,,0.00,,2013-07-06 15:12:00,
2013-07-06 10:22:00,86.0,68.0,29.88,South,171,9.0,13.0,56,0.00,,,0.00,,2013-07-06 15:22:00,
2013-07-06 10:43:00,87.0,69.0,29.88,SSE,163,6.0,12.0,56,0.00,,,0.00,,2013-07-06 15:43:00,
2013-07-06 10:52:00,87.0,68.0,29.88,South,186,8.0,12.0,54,0.00,,,0.00,,2013-07-06 15:52:00,
2013-07-06 11:05:00,87.0,68.0,29.88,South,170,8.0,13.0,53,0.00,,,0.00,,2013-07-06 16:05:00,
2013-07-06 11:14:00,88.0,68.0,29.88,SSE,150,7.0,16.0,51,0.00,,,0.00,,2013-07-06 16:14:00,
2013-07-06 11:23:00,89.0,68.0,29.88,SSE,165,8.0,18.0,51,0.00,,,0.00,,2013-07-06 16:23:00,
2013-07-06 11:49:00,90.0,68.0,29.87,ESE,113,6.0,18.0,48,0.00,,,0.00,,2013-07-06 16:49:00,
2013-07-06 12:08:00,90.0,67.0,29.88,ENE,65,6.0,12.0,47,0.00,,,0.00,,2013-07-06 17:08:00,
2013-07-06 12:48:00,91.0,68.0,29.87,SE,145,6.0,12.0,47,0.00,,,0.00,,2013-07-06 17:48:00,
2013-07-06 12:57:00,92.0,67.0,29.87,SE,137,7.0,13.0,44,0.00,,,0.00,,2013-07-06 17:57:00,
2013-07-06 13:06:00,92.0,68.0,29.87,SE,136,7.0,12.0,45,0.00,,,0.00,,2013-07-06 18:06:00,
2013-07-06 13:19:00,92.0,66.0,29.87,SSE,154,13.0,20.0,43,0.00,,,0.00,,2013-07-06 18:19:00,
2013-07-06 13:28:00,93.0,66.0,29.86,SSE,164,6.0,16.0,42,0.00,,,0.00,,2013-07-06 18:28:00,
2013-07-06 14:08:00,95.0,67.0,29.85,SE,138,5.0,12.0,40,0.00,,,0.00,,2013-07-06 19:08:00,
2013-07-06 14:18:00,95.0,65.0,29.85,SSE,147,7.0,16.0,38,0.00,,,0.00,,2013-07-06 19:18:00,
2013-07-06 14:28:00,95.0,67.0,29.84,ESE,114,6.0,14.0,40,0.00,,,0.00,,2013-07-06 19:28:00,
2013-07-06 14:38:00,95.0,66.0,29.84,ESE,122,10.0,20.0,39,0.00,,,0.00,,2013-07-06 19:38:00,
2013-07-06 14:49:00,95.0,66.0,29.83,SE,138,9.0,16.0,39,0.00,,,0.00,,2013-07-06 19:49:00,
2013-07-06 14:54:00,95.0,65.0,29.83,ENE,75,10.0,18.0,38,0.00,,,0.00,,2013-07-06 19:54:00,
2013-07-06 15:08:00,96.0,65.0,29.83,ESE,103,6.0,18.0,37,0.00,,,0.00,,2013-07-06 20:08:00,
2013-07-06 15:18:00,96.0,65.0,29.83,East,90,6.0,10.0,37,0.00,,,0.00,,2013-07-06 20:18:00,
2013-07-06 15:27:00,96.0,65.0,29.83,ESE,121,5.0,14.0,36,0.00,,,0.00,,2013-07-06 20:27:00,
2013-07-06 15:40:00,96.0,65.0,29.83,SE,139,12.0,21.0,36,0.00,,,0.00,,2013-07-06 20:40:00,
2013-07-06 15:49:00,96.0,65.0,29.83,ESE,119,8.0,20.0,36,0.00,,,0.00,,2013-07-06 20:49:00,
2013-07-06 16:28:00,97.0,64.0,29.81,East,100,5.0,12.0,34,0.00,,,0.00,,2013-07-06 21:28:00,
2013-07-06 16:49:00,97.0,63.0,29.81,SE,129,6.0,18.0,33,0.00,,,0.00,,2013-07-06 21:49:00,
2013-07-06 17:18:00,96.0,59.0,29.80,ESE,106,8.0,12.0,30,0.00,,,0.00,,2013-07-06 22:18:00,
2013-07-06 17:27:00,96.0,58.0,29.80,ESE,110,5.0,10.0,28,0.00,,,0.00,,2013-07-06 22:27:00,
2013-07-06 17:49:00,96.0,58.0,29.80,East,90,4.0,10.0,28,0.00,,,0.00,,2013-07-06 22:49:00,
2013-07-06 17:57:00,97.0,57.0,29.79,SE,129,3.0,8.0,27,0.00,,,0.00,,2013-07-06 22:57:00,
2013-07-06 18:08:00,97.0,59.0,29.79,SSE,150,3.0,12.0,29,0.00,,,0.00,,2013-07-06 23:08:00,
2013-07-06 18:28:00,96.0,59.0,29.78,SE,129,3.0,8.0,29,0.00,,,0.00,,2013-07-06 23:28:00,
2013-07-06 18:40:00,96.0,59.0,29.78,ESE,108,3.0,8.0,30,0.00,,,0.00,,2013-07-06 23:40:00,
2013-07-06 18:49:00,96.0,60.0,29.79,ESE,113,3.0,7.0,31,0.00,,,0.00,,2013-07-06 23:49:00,
2013-07-06 19:09:00,96.0,60.0,29.79,SE,129,8.0,14.0,31,0.00,,,0.00,,2013-07-07 00:09:00,
2013-07-06 19:39:00,95.0,60.0,29.79,SE,125,2.0,10.0,31,0.00,,,0.00,,2013-07-07 00:39:00,
2013-07-06 20:04:00,95.0,60.0,29.79,ESE,123,6.0,12.0,32,0.00,,,0.00,,2013-07-07 01:04:00,
2013-07-06 20:07:00,95.0,59.0,29.79,SE,134,7.0,12.0,30,0.00,,,0.00,,2013-07-07 01:07:00,
2013-07-06 20:17:00,95.0,60.0,29.79,SE,133,5.0,10.0,31,0.00,,,0.00,,2013-07-07 01:17:00,
2013-07-06 20:29:00,95.0,60.0,29.79,ESE,123,6.0,12.0,32,0.00,,,0.00,,2013-07-07 01:29:00,
2013-07-06 20:49:00,95.0,60.0,29.79,ESE,123,6.0,12.0,32,0.00,,,0.00,,2013-07-07 01:49:00,
2013-07-06 21:53:00,92.0,64.0,29.80,ESE,111,1.0,3.0,40,0.00,,,0.00,,2013-07-07 02:53:00,
2013-07-06 22:01:00,92.0,64.0,29.80,ESE,111,1.0,3.0,40,0.00,,,0.00,,2013-07-07 03:01:00,
2013-07-06 22:18:00,92.0,64.0,29.80,ESE,111,1.0,3.0,40,0.00,,,0.00,,2013-07-07 03:18:00,
2013-07-06 23:01:00,92.0,64.0,29.80,ESE,111,3.0,6.0,40,0.00,,,0.00,,2013-07-07 04:01:00,
2013-07-06 23:11:00,92.0,64.0,29.80,ESE,111,3.0,6.0,40,0.00,,,0.00,,2013-07-07 04:11:00,
2013-07-06 23:21:00,92.0,64.0,29.80,ESE,111,3.0,6.0,40,0.00,,,0.00,,2013-07-07 04:21:00,
2013-07-06 23:31:00,92.0,64.0,29.80,ESE,111,3.0,6.0,40,0.00,,,0.00,,2013-07-07 04:31:00,
2013-07-06 23:51:00,91.0,63.0,29.81,ESE,111,1.0,5.0,40,0.00,,,0.00,,2013-07-07 04:51:00,